KYNG/YNG METAR and TAF weather

Enter ICAO airport designator
Station Type Date Time Source
KYNG METAR 2019/06/16 20:47 UTC NOAA

KYNG 162047Z 1/2SM +RA FG SCT005 BKN010 OVC040 22/19 A2983 RMK AO2 RAB1952E06B28 P0009 $


Station Type Date Time Source
KYNG Decoded METAR 2019/06/16 20:47 UTC NOAA

YOUNGSTOWN-WARREN REG AIRPRT, OH, United States (KYNG) 41-15N 080-40W 360M
Jun 16, 2019 - 04:47 PM EDT / 2019.06.16 2047 UTC
Visibility: 1/2 mile(s):0
Sky conditions: overcast
Weather: heavy rain; fog
Precipitation last hour: 0.09 inches
Temperature: 71 F (22 C)
Dew Point: 66 F (19 C)
Relative Humidity: 83%
Pressure (altimeter): 29.83 in. Hg (1010 hPa)
ob: KYNG 162047Z 1/2SM +RA FG SCT005 BKN010 OVC040 22/19 A2983 RMK AO2 RAB1952E06B28 P0009
cycle: 21

Station Type Date Time Source
KYNG TAF 2019/06/16 18:42 UTC NOAA

TAF KYNG 161741Z 1618/1718 22005KT P6SM VCSH OVC015
TEMPO 1618/1619 2SM -SHRA BR OVC008
FM162000 33008KT P6SM VCSH OVC015
TEMPO 1623/1702 4SM -SHRA BR
FM170400 VRB03KT P6SM OVC015
FM170600 VRB03KT 2SM BR OVC007
FM171500 13003KT P6SM OVC015

Example: see airport list